createdAt,value
2022-09-01T00:00:07.248Z,66.11
2022-09-01T00:02:35.059Z,66.49
2022-09-01T00:05:04.507Z,66.64
2022-09-01T00:07:31.807Z,66.85
2022-09-01T00:10:00.416Z,66.83
2022-09-01T00:12:29.491Z,67.05
2022-09-01T00:14:56.782Z,67.30
2022-09-01T00:17:23.777Z,66.90
2022-09-01T00:19:50.826Z,67.10
2022-09-01T00:22:17.908Z,67.20
2022-09-01T00:24:44.873Z,67.55
2022-09-01T00:27:11.882Z,67.44
2022-09-01T00:29:43.368Z,67.92
2022-09-01T00:32:12.222Z,67.50
2022-09-01T00:34:39.801Z,67.88
2022-09-01T00:37:07.530Z,68.18
2022-09-01T00:39:35.525Z,68.71
2022-09-01T00:42:02.594Z,68.31
2022-09-01T00:44:31.197Z,68.62
2022-09-01T00:46:59.891Z,68.73
2022-09-01T00:49:37.023Z,69.10
2022-09-01T00:52:19.095Z,68.81
2022-09-01T00:54:53.068Z,69.33
2022-09-01T00:57:20.170Z,69.14
2022-09-01T00:59:56.310Z,69.44
2022-09-01T01:02:23.905Z,69.30
2022-09-01T01:04:52.650Z,69.75
2022-09-01T01:07:22.888Z,69.46
2022-09-01T01:09:51.285Z,69.90
2022-09-01T01:12:18.498Z,69.65
2022-09-01T01:14:50.430Z,70.16
2022-09-01T01:17:23.094Z,69.85
2022-09-01T01:20:13.073Z,70.03
2022-09-01T01:23:05.450Z,70.06
2022-09-01T01:25:48.285Z,70.20
2022-09-01T01:28:23.425Z,70.73
2022-09-01T01:31:11.916Z,70.49
2022-09-01T01:33:53.184Z,70.25
2022-09-01T01:36:36.214Z,70.85
2022-09-01T01:39:15.904Z,70.62
2022-09-01T01:41:48.660Z,71.23
2022-09-01T01:44:22.612Z,71.00
2022-09-01T01:46:53.095Z,71.29
2022-09-01T01:49:25.424Z,71.04
2022-09-01T01:51:56.113Z,71.82
2022-09-01T01:54:31.218Z,72.00
2022-09-01T01:57:05.727Z,71.16
2022-09-01T01:59:33.751Z,71.75
2022-09-01T02:02:03.732Z,71.81
2022-09-01T02:04:34.364Z,71.86
2022-09-01T02:07:10.627Z,72.24
2022-09-01T02:09:40.743Z,71.82
2022-09-01T02:12:08.801Z,72.17
2022-09-01T02:14:36.261Z,72.43
2022-09-01T02:17:07.165Z,72.28
2022-09-01T02:19:38.477Z,72.69
2022-09-01T02:22:05.557Z,72.67
2022-09-01T02:24:32.820Z,72.93
2022-09-01T02:27:00.479Z,72.77
2022-09-01T02:29:30.146Z,73.36
2022-09-01T02:32:01.898Z,72.89
2022-09-01T02:34:29.267Z,72.91
2022-09-01T02:36:57.287Z,72.61
2022-09-01T02:39:29.316Z,73.22
2022-09-01T02:41:56.766Z,72.87
2022-09-01T02:44:29.177Z,72.72
2022-09-01T02:46:56.848Z,72.73
2022-09-01T02:49:28.168Z,73.10
2022-09-01T02:52:01.421Z,73.18
2022-09-01T02:54:32.122Z,73.13
2022-09-01T02:56:59.734Z,72.95
2022-09-01T02:59:30.394Z,73.16
2022-09-01T03:02:00.104Z,72.55
2022-09-01T03:04:27.335Z,72.76
2022-09-01T03:06:55.067Z,72.85
2022-09-01T03:09:23.132Z,72.84
2022-09-01T03:11:52.596Z,73.33
2022-09-01T03:14:22.045Z,73.41
2022-09-01T03:16:49.112Z,73.14
2022-09-01T03:19:17.428Z,73.37
2022-09-01T03:21:46.754Z,73.30
2022-09-01T03:24:18.574Z,73.02
2022-09-01T03:26:50.284Z,73.51
2022-09-01T03:29:19.035Z,73.60
2022-09-01T03:31:46.764Z,73.34
2022-09-01T03:34:19.191Z,73.25
2022-09-01T03:36:50.865Z,73.41
2022-09-01T03:39:27.822Z,73.48
2022-09-01T03:41:56.348Z,73.83
2022-09-01T03:44:23.357Z,74.47
2022-09-01T03:46:51.768Z,74.01
2022-09-01T03:49:28.464Z,74.32
2022-09-01T03:51:57.381Z,73.78
2022-09-01T03:54:27.821Z,74.51
2022-09-01T03:56:59.489Z,74.16
2022-09-01T03:59:26.982Z,73.89
2022-09-01T04:01:54.400Z,74.07
2022-09-01T04:04:21.937Z,74.01
2022-09-01T04:06:49.367Z,73.80
2022-09-01T04:09:16.322Z,73.81
2022-09-01T04:11:46.793Z,74.10
2022-09-01T04:14:15.790Z,73.72
2022-09-01T04:17:03.626Z,73.33
2022-09-01T04:19:38.452Z,73.52
2022-09-01T04:22:07.961Z,74.17
2022-09-01T04:24:45.950Z,73.90
2022-09-01T04:27:15.594Z,74.84
2022-09-01T04:29:44.251Z,74.59
2022-09-01T04:32:12.958Z,74.40
2022-09-01T04:34:43.003Z,74.35
2022-09-01T04:37:21.189Z,74.46
2022-09-01T04:39:56.598Z,74.89
2022-09-01T04:42:28.871Z,75.06
2022-09-01T04:44:57.294Z,74.21
2022-09-01T04:47:35.972Z,75.29
2022-09-01T04:50:13.596Z,75.29
2022-09-01T04:52:42.928Z,75.79
2022-09-01T04:55:18.602Z,75.32
2022-09-01T04:57:50.138Z,75.10
2022-09-01T05:00:24.235Z,75.70
2022-09-01T05:03:04.545Z,75.45
2022-09-01T05:05:51.191Z,74.99
2022-09-01T05:08:24.196Z,75.50
2022-09-01T05:10:56.551Z,75.57
2022-09-01T05:13:43.342Z,75.30
2022-09-01T05:16:14.969Z,75.28
2022-09-01T05:18:47.523Z,74.87
2022-09-01T05:21:17.876Z,74.12
2022-09-01T05:23:46.990Z,74.96
2022-09-01T05:26:26.032Z,75.23
2022-09-01T05:28:56.826Z,75.01
2022-09-01T05:31:28.104Z,74.62
2022-09-01T05:33:58.036Z,75.12
2022-09-01T05:36:25.708Z,75.53
2022-09-01T05:38:54.730Z,75.87
2022-09-01T05:41:23.808Z,76.10
2022-09-01T05:43:57.737Z,75.65
2022-09-01T05:46:28.188Z,75.87
2022-09-01T05:48:58.497Z,76.41
2022-09-01T05:51:46.372Z,76.31
2022-09-01T05:54:23.195Z,76.78
2022-09-01T05:56:50.408Z,78.02
2022-09-01T05:59:24.805Z,76.76
2022-09-01T06:01:56.849Z,77.13
2022-09-01T06:04:26.896Z,76.78
2022-09-01T06:07:05.688Z,77.28
2022-09-01T06:09:48.261Z,76.99
2022-09-01T06:12:18.976Z,77.10
2022-09-01T06:14:48.341Z,77.04
2022-09-01T06:17:21.999Z,77.75
2022-09-01T06:19:49.676Z,77.71
2022-09-01T06:22:17.084Z,77.27
2022-09-01T06:24:45.044Z,77.27
2022-09-01T06:27:18.428Z,77.17
2022-09-01T06:29:45.531Z,77.69
2022-09-01T06:32:13.070Z,77.59
2022-09-01T06:34:44.600Z,77.20
2022-09-01T06:37:13.390Z,77.16
2022-09-01T06:39:44.041Z,77.51
2022-09-01T06:42:13.987Z,77.51
2022-09-01T06:44:48.381Z,77.49
2022-09-01T06:47:15.916Z,77.11
2022-09-01T06:49:43.043Z,77.27
2022-09-01T06:52:16.139Z,77.02
2022-09-01T06:54:44.014Z,77.00
2022-09-01T07:00:00.285Z,77.50
2022-09-01T07:02:30.832Z,77.79
2022-09-01T07:08:15.802Z,77.32
2022-09-01T07:14:18.468Z,77.81
2022-09-01T07:19:49.484Z,77.69
2022-09-01T07:25:12.850Z,77.59
2022-09-01T07:28:06.272Z,77.65
2022-09-01T07:30:35.220Z,77.66
2022-09-01T07:42:31.992Z,77.71
2022-09-01T07:42:56.296Z,77.41
2022-09-01T07:45:25.372Z,77.48
2022-09-01T07:47:59.357Z,77.25
2022-09-01T07:50:40.406Z,77.20
2022-09-01T07:53:11.087Z,76.98
2022-09-01T07:55:54.322Z,76.86
2022-09-01T07:58:26.244Z,76.88
2022-09-01T08:01:02.595Z,76.88
2022-09-01T08:03:31.026Z,76.14
2022-09-01T08:06:08.842Z,76.28
2022-09-01T08:08:39.678Z,76.25
2022-09-01T08:11:08.843Z,76.43
2022-09-01T08:13:41.787Z,76.48
2022-09-01T08:16:19.303Z,75.97
2022-09-01T08:18:49.506Z,75.92
2022-09-01T08:21:27.823Z,75.68
2022-09-01T08:24:02.950Z,75.46
2022-09-01T08:26:32.824Z,74.91
2022-09-01T08:29:01.525Z,74.93
2022-09-01T08:31:35.631Z,74.83
2022-09-01T08:34:07.309Z,74.58
2022-09-01T08:36:35.400Z,74.65
2022-09-01T08:39:02.880Z,74.26
2022-09-01T08:41:58.627Z,73.28
2022-09-01T08:44:58.485Z,73.54
2022-09-01T08:47:39.489Z,73.47
2022-09-01T08:50:14.100Z,73.29
2022-09-01T08:53:26.156Z,73.13
2022-09-01T08:55:58.675Z,72.82
2022-09-01T08:58:30.994Z,72.70
2022-09-01T09:01:57.388Z,72.34
2022-09-01T09:04:49.201Z,72.18
2022-09-01T09:07:22.663Z,71.96
2022-09-01T09:10:02.740Z,71.65
2022-09-01T09:13:00.587Z,71.70
2022-09-01T09:16:09.410Z,70.57
2022-09-01T09:18:57.712Z,69.98
2022-09-01T09:21:37.714Z,70.26
2022-09-01T09:24:50.023Z,69.32
2022-09-01T09:27:30.537Z,68.32
2022-09-01T09:30:08.342Z,66.94
2022-09-01T09:35:48.761Z,67.88
2022-09-01T09:38:24.305Z,68.02
2022-09-01T09:41:20.330Z,66.86
2022-09-01T09:44:08.283Z,67.17
2022-09-01T09:46:44.383Z,67.68
2022-09-01T09:49:36.151Z,66.62
2022-09-01T09:52:10.356Z,66.87
2022-09-01T09:55:05.040Z,66.12
2022-09-01T09:57:38.452Z,64.26
2022-09-01T10:00:26.107Z,65.81
2022-09-01T10:03:08.867Z,65.33
2022-09-01T10:05:48.712Z,63.70
2022-09-01T10:08:45.370Z,64.71
2022-09-01T10:11:33.429Z,64.41
2022-09-01T10:14:05.027Z,64.48
2022-09-01T10:16:37.569Z,64.55
2022-09-01T10:19:12.557Z,63.33
2022-09-01T10:21:45.370Z,62.68
2022-09-01T10:24:44.615Z,62.38
2022-09-01T10:27:29.131Z,62.14
2022-09-01T10:30:18.778Z,62.75
2022-09-01T10:33:06.811Z,62.37
2022-09-01T10:35:50.898Z,62.09
2022-09-01T10:38:26.827Z,61.38
2022-09-01T10:41:13.945Z,62.20
2022-09-01T10:43:48.818Z,61.47
2022-09-01T10:46:25.841Z,59.92
2022-09-01T10:49:02.692Z,59.89
2022-09-01T10:51:38.306Z,59.66
2022-09-01T10:54:06.713Z,60.42
2022-09-01T10:56:52.044Z,59.50
2022-09-01T10:59:43.513Z,59.66
2022-09-01T11:02:35.370Z,58.90
2022-09-01T11:05:02.330Z,60.47
2022-09-01T11:07:50.308Z,60.25
2022-09-01T11:10:39.778Z,58.92
2022-09-01T11:13:34.693Z,57.20
2022-09-01T11:16:49.236Z,56.98
2022-09-01T11:19:39.425Z,56.85
2022-09-01T11:22:28.128Z,55.30
2022-09-01T11:25:39.704Z,54.42
2022-09-01T11:28:15.511Z,55.31
2022-09-01T11:31:02.306Z,54.20
2022-09-01T11:34:03.774Z,53.07
2022-09-01T11:36:36.207Z,54.10
2022-09-01T11:39:19.177Z,53.74
2022-09-01T11:42:16.676Z,53.16
2022-09-01T11:45:20.558Z,53.84
2022-09-01T11:48:00.788Z,53.97
2022-09-01T11:50:36.744Z,53.04
2022-09-01T11:53:13.016Z,53.23
2022-09-01T11:55:49.104Z,53.17
2022-09-01T11:58:30.905Z,52.46
2022-09-01T12:01:32.234Z,51.52
2022-09-01T12:04:29.643Z,51.64
2022-09-01T12:07:11.605Z,52.67
2022-09-01T12:09:51.726Z,53.59
2022-09-01T12:12:38.332Z,53.08
2022-09-01T12:15:22.811Z,53.08
2022-09-01T12:17:50.890Z,54.13
2022-09-01T12:20:35.305Z,53.21
2022-09-01T12:23:02.549Z,54.20
2022-09-01T12:25:35.237Z,54.01
2022-09-01T12:28:06.115Z,52.42
2022-09-01T12:30:40.245Z,50.37
2022-09-01T12:33:28.532Z,50.02
2022-09-01T12:36:26.477Z,48.85
2022-09-01T12:38:57.110Z,49.96
2022-09-01T12:41:39.099Z,50.35
2022-09-01T12:44:31.010Z,48.61
2022-09-01T12:47:11.159Z,48.81
2022-09-01T12:49:50.184Z,49.05
2022-09-01T12:52:25.304Z,47.92
2022-09-01T12:58:10.092Z,47.66
2022-09-01T13:00:56.285Z,48.11
2022-09-01T13:03:23.764Z,48.94
2022-09-01T13:05:56.257Z,48.24
2022-09-01T13:08:33.179Z,47.60
2022-09-01T13:11:14.103Z,47.95
2022-09-01T13:13:42.414Z,49.53
2022-09-01T13:16:13.563Z,49.21
2022-09-01T13:21:32.999Z,50.73
2022-09-01T13:24:00.640Z,48.98
2022-09-01T13:26:31.403Z,48.73
2022-09-01T13:28:59.867Z,49.00
2022-09-01T13:31:29.450Z,48.31
2022-09-01T13:34:21.804Z,47.91
2022-09-01T13:36:51.011Z,48.46
2022-09-01T13:39:20.722Z,48.32
2022-09-01T13:41:49.257Z,49.28
2022-09-01T13:44:18.421Z,49.42
2022-09-01T13:47:28.557Z,48.36
2022-09-01T13:49:42.502Z,47.93
2022-09-01T13:52:10.605Z,48.09
2022-09-01T13:54:37.567Z,47.93
2022-09-01T13:57:05.962Z,47.97
2022-09-01T13:59:33.117Z,46.75
2022-09-01T14:02:01.577Z,46.96
2022-09-01T14:04:28.846Z,46.97
2022-09-01T14:06:56.113Z,47.26
2022-09-01T14:09:23.246Z,47.06
2022-09-01T14:11:54.366Z,46.50
2022-09-01T14:14:22.134Z,45.76
2022-09-01T14:16:49.535Z,46.22
2022-09-01T14:19:16.676Z,45.60
2022-09-01T14:21:44.221Z,45.30
2022-09-01T14:24:12.548Z,45.23
2022-09-01T14:26:41.974Z,45.61
2022-09-01T14:29:09.435Z,45.19
2022-09-01T14:31:37.721Z,45.73
2022-09-01T14:34:06.707Z,45.65
2022-09-01T14:36:33.796Z,44.81
2022-09-01T14:39:00.823Z,44.90
2022-09-01T14:41:27.864Z,44.30
2022-09-01T14:44:03.031Z,42.62
2022-09-01T14:46:34.196Z,45.01
2022-09-01T14:49:05.049Z,45.19
2022-09-01T14:54:19.867Z,45.06
2022-09-01T14:59:35.464Z,44.35
2022-09-01T15:02:02.529Z,43.89
2022-09-01T15:04:29.785Z,44.09
2022-09-01T15:06:56.757Z,44.69
2022-09-01T15:09:23.744Z,43.97
2022-09-01T15:11:50.750Z,44.18
2022-09-01T15:14:17.964Z,43.89
2022-09-01T15:16:46.895Z,44.00
2022-09-01T15:19:14.575Z,44.08
2022-09-01T15:21:46.673Z,43.72
2022-09-01T15:24:13.625Z,44.24
2022-09-01T15:26:40.909Z,44.40
2022-09-01T15:29:11.833Z,44.59
2022-09-01T15:31:39.711Z,45.13
2022-09-01T15:34:07.409Z,44.97
2022-09-01T15:36:40.238Z,44.34
2022-09-01T15:39:09.181Z,45.52
2022-09-01T15:41:36.799Z,44.50
2022-09-01T15:44:07.773Z,44.29
2022-09-01T15:46:38.854Z,43.55
2022-09-01T15:49:10.228Z,43.47
2022-09-01T15:51:45.466Z,43.17
2022-09-01T15:54:19.193Z,44.47
2022-09-01T15:56:47.487Z,44.12
2022-09-01T15:59:15.374Z,43.78
2022-09-01T16:01:45.665Z,43.81
2022-09-01T16:04:19.972Z,43.80
2022-09-01T16:06:50.882Z,44.35
2022-09-01T16:09:20.826Z,44.16
2022-09-01T16:11:47.819Z,44.13
2022-09-01T16:14:15.997Z,44.28
2022-09-01T16:16:48.943Z,43.77
2022-09-01T16:19:48.020Z,43.50
2022-09-01T16:22:35.792Z,43.42
2022-09-01T16:25:15.142Z,43.08
2022-09-01T16:27:45.678Z,44.82
2022-09-01T16:30:22.481Z,43.38
2022-09-01T16:32:50.099Z,44.60
2022-09-01T16:35:19.880Z,44.27
2022-09-01T16:38:28.177Z,42.93
2022-09-01T16:41:27.990Z,43.41
2022-09-01T16:44:24.005Z,43.47
2022-09-01T16:47:19.385Z,43.61
2022-09-01T16:50:09.056Z,43.34
2022-09-01T16:53:23.661Z,43.46
2022-09-01T16:56:01.946Z,43.87
2022-09-01T16:58:59.562Z,43.95
2022-09-01T17:02:18.707Z,43.70
2022-09-01T17:04:53.955Z,44.35
2022-09-01T17:07:39.192Z,43.63
2022-09-01T17:10:23.520Z,43.97
2022-09-01T17:12:56.066Z,44.80
2022-09-01T17:15:40.942Z,44.23
2022-09-01T17:18:28.726Z,44.81
2022-09-01T17:21:08.650Z,44.56
2022-09-01T17:23:46.181Z,44.21
2022-09-01T17:26:24.840Z,44.32
2022-09-01T17:29:05.921Z,44.72
2022-09-01T17:32:02.722Z,44.75
2022-09-01T17:34:58.070Z,44.72
2022-09-01T17:38:08.930Z,44.39
2022-09-01T17:40:58.873Z,45.09
2022-09-01T17:43:46.010Z,45.35
2022-09-01T17:46:55.717Z,45.31
2022-09-01T17:49:41.506Z,45.41
2022-09-01T17:52:31.159Z,45.83
2022-09-01T17:55:36.533Z,45.47
2022-09-01T17:58:32.364Z,45.88
2022-09-01T18:01:12.086Z,46.00
2022-09-01T18:04:12.027Z,45.90
2022-09-01T18:07:01.350Z,46.11
2022-09-01T18:09:31.786Z,46.91
2022-09-01T18:12:09.742Z,46.42
2022-09-01T18:14:50.046Z,46.37
2022-09-01T18:17:31.409Z,46.44
2022-09-01T18:20:23.536Z,46.39
2022-09-01T18:23:09.679Z,46.71
2022-09-01T18:25:44.287Z,47.26
2022-09-01T18:28:11.638Z,47.51
2022-09-01T18:30:59.318Z,47.24
2022-09-01T18:34:01.614Z,46.80
2022-09-01T18:37:05.335Z,46.55
2022-09-01T18:40:10.991Z,46.91
2022-09-01T18:43:14.355Z,47.19
2022-09-01T18:45:54.329Z,47.53
2022-09-01T18:49:01.421Z,47.13
2022-09-01T18:52:05.204Z,47.43
2022-09-01T18:54:45.031Z,47.35
2022-09-01T18:57:21.071Z,47.85
2022-09-01T19:00:17.744Z,47.55
2022-09-01T19:03:27.560Z,47.85
2022-09-01T19:06:26.480Z,47.56
2022-09-01T19:09:19.417Z,47.62
2022-09-01T19:12:10.500Z,47.83
2022-09-01T19:15:11.518Z,47.89
2022-09-01T19:18:56.305Z,47.75
2022-09-01T19:21:34.478Z,48.49
2022-09-01T19:24:13.032Z,48.12
2022-09-01T19:27:00.124Z,48.06
2022-09-01T19:29:40.878Z,48.51
2022-09-01T19:32:18.039Z,49.06
2022-09-01T19:35:02.738Z,48.47
2022-09-01T19:37:31.589Z,49.24
2022-09-01T19:39:58.672Z,49.22
2022-09-01T19:43:05.964Z,48.27
2022-09-01T19:46:00.154Z,48.86
2022-09-01T19:48:39.749Z,48.81
2022-09-01T19:51:17.815Z,49.13
2022-09-01T19:53:47.009Z,49.55
2022-09-01T19:56:33.251Z,49.88
2022-09-01T19:59:31.387Z,49.48
2022-09-01T20:02:11.525Z,49.85
2022-09-01T20:05:11.997Z,49.63
2022-09-01T20:07:59.482Z,49.97
2022-09-01T20:10:35.957Z,50.58
2022-09-01T20:13:36.218Z,50.53
2022-09-01T20:16:28.564Z,50.60
2022-09-01T20:19:16.396Z,50.51
2022-09-01T20:21:46.927Z,51.14
2022-09-01T20:24:38.349Z,50.83
2022-09-01T20:27:24.246Z,50.99
2022-09-01T20:30:05.826Z,51.24
2022-09-01T20:32:43.197Z,51.41
2022-09-01T20:35:19.742Z,51.84
2022-09-01T20:37:55.149Z,52.33
2022-09-01T20:40:40.113Z,51.94
2022-09-01T20:43:25.987Z,51.46
2022-09-01T20:45:52.992Z,52.66
2022-09-01T20:48:27.597Z,52.65
2022-09-01T20:51:20.147Z,52.34
2022-09-01T20:54:14.730Z,52.46
2022-09-01T20:57:02.715Z,53.05
2022-09-01T20:59:38.819Z,52.65
2022-09-01T21:02:31.410Z,52.66
2022-09-01T21:05:26.587Z,53.33
2022-09-01T21:08:20.157Z,53.31
2022-09-01T21:11:38.007Z,53.63
2022-09-01T21:14:33.451Z,53.44
2022-09-01T21:17:32.288Z,53.52
2022-09-01T21:20:40.282Z,53.22
2022-09-01T21:23:07.221Z,54.03
2022-09-01T21:25:34.470Z,54.35
2022-09-01T21:28:04.561Z,54.31
2022-09-01T21:30:35.053Z,54.23
2022-09-01T21:33:02.885Z,54.58
2022-09-01T21:35:30.079Z,54.49
2022-09-01T21:37:57.039Z,55.13
2022-09-01T21:40:25.424Z,54.78
2022-09-01T21:43:08.182Z,54.88
2022-09-01T21:45:37.851Z,54.89
2022-09-01T21:48:07.327Z,55.30
2022-09-01T21:50:34.372Z,55.00
2022-09-01T21:53:01.654Z,55.50
2022-09-01T21:55:29.423Z,55.50
2022-09-01T21:57:56.881Z,55.46
2022-09-01T22:00:28.787Z,55.58
2022-09-01T22:03:01.682Z,55.84
2022-09-01T22:05:30.777Z,55.91
2022-09-01T22:07:58.932Z,56.15
2022-09-01T22:10:28.625Z,56.19
2022-09-01T22:12:56.744Z,56.07
2022-09-01T22:15:25.447Z,56.26
2022-09-01T22:17:57.491Z,56.16
2022-09-01T22:20:25.980Z,56.67
2022-09-01T22:22:54.623Z,56.79
2022-09-01T22:25:23.878Z,56.50
2022-09-01T22:27:51.114Z,56.66
2022-09-01T22:30:19.165Z,56.79
2022-09-01T22:32:47.810Z,57.08
2022-09-01T22:35:16.668Z,56.88
2022-09-01T22:37:44.315Z,57.25
2022-09-01T22:40:12.729Z,57.15
2022-09-01T22:42:39.774Z,56.97
2022-09-01T22:45:09.726Z,56.88
2022-09-01T22:47:38.503Z,57.22
2022-09-01T22:50:07.964Z,57.31
2022-09-01T22:52:36.305Z,57.25
2022-09-01T22:55:05.111Z,57.55
2022-09-01T22:57:32.342Z,58.18
2022-09-01T22:59:59.445Z,57.91
2022-09-01T23:02:27.222Z,58.02
2022-09-01T23:04:54.444Z,58.06
2022-09-01T23:07:21.411Z,58.23
2022-09-01T23:09:48.355Z,58.62
2022-09-01T23:12:15.332Z,58.24
2022-09-01T23:14:42.319Z,58.36
2022-09-01T23:17:09.642Z,58.44
2022-09-01T23:19:36.912Z,58.32
2022-09-01T23:22:04.359Z,59.03
2022-09-01T23:24:31.344Z,59.14
2022-09-01T23:26:58.431Z,58.55
2022-09-01T23:29:25.507Z,58.73
2022-09-01T23:31:53.019Z,58.60
2022-09-01T23:34:20.069Z,59.05
2022-09-01T23:36:47.162Z,59.39
2022-09-01T23:39:14.527Z,59.41
2022-09-01T23:41:41.962Z,59.21
2022-09-01T23:44:11.107Z,59.61
2022-09-01T23:46:43.777Z,59.81
2022-09-01T23:49:12.530Z,59.60
2022-09-01T23:51:40.793Z,59.67
2022-09-01T23:54:07.818Z,59.77
2022-09-01T23:56:35.182Z,60.00
2022-09-01T23:59:02.300Z,60.00
